createdAt,value
2019-02-28T00:00:55.491Z,94768.56
2019-02-28T00:15:50.578Z,94763.84
2019-02-28T00:30:50.436Z,94752.59
2019-02-28T00:45:51.835Z,94744.72
2019-02-28T01:00:51.788Z,94737.32
2019-02-28T01:15:51.129Z,94720.78
2019-02-28T01:30:51.604Z,94721.50
2019-02-28T01:45:50.459Z,94703.52
2019-02-28T02:00:50.419Z,94697.98
2019-02-28T02:15:52.102Z,94696.58
2019-02-28T02:30:52.682Z,94701.99
2019-02-28T02:45:50.614Z,94678.24
2019-02-28T03:00:53.608Z,94665.53
2019-02-28T03:15:50.430Z,94675.36
2019-02-28T03:30:50.863Z,94651.93
2019-02-28T03:45:50.732Z,94669.57
2019-02-28T04:00:54.338Z,94647.16
2019-02-28T04:16:07.404Z,94633.64
2019-02-28T04:30:59.715Z,94621.97
2019-02-28T04:45:51.104Z,94625.03
2019-02-28T05:00:57.338Z,94638.83
2019-02-28T05:15:51.576Z,94633.31
2019-02-28T05:30:53.681Z,94638.55
2019-02-28T05:45:51.089Z,94648.89
2019-02-28T06:00:50.991Z,94659.27
2019-02-28T06:15:51.396Z,94675.05
2019-02-28T06:30:51.349Z,94685.80
2019-02-28T06:45:51.298Z,94673.48
2019-02-28T07:00:51.184Z,94669.99
2019-02-28T07:15:51.625Z,94655.53
2019-02-28T07:30:51.443Z,94631.42
2019-02-28T09:15:51.439Z,94573.61
2019-02-28T09:45:50.818Z,94553.17
2019-02-28T10:00:51.740Z,94535.37
2019-02-28T10:15:50.973Z,94524.61
2019-02-28T10:30:52.078Z,94495.62
2019-02-28T10:45:50.951Z,94468.34
2019-02-28T11:00:53.175Z,94439.89
2019-02-28T11:15:54.163Z,94414.88
2019-02-28T11:30:52.995Z,94394.05
2019-02-28T12:00:51.463Z,94336.66
2019-02-28T13:15:51.020Z,93426.39
2019-02-28T13:30:52.197Z,94189.32
2019-02-28T13:45:55.943Z,94171.77
2019-02-28T14:00:51.739Z,94144.80
2019-02-28T14:15:53.320Z,94140.53
2019-02-28T14:30:54.434Z,94146.23
2019-02-28T14:45:51.004Z,94128.23
2019-02-28T15:00:52.812Z,94121.87
2019-02-28T15:15:53.201Z,94098.19
2019-02-28T15:30:51.255Z,94089.03
2019-02-28T15:45:51.181Z,94073.83
2019-02-28T16:00:53.798Z,94076.84
2019-02-28T16:15:51.400Z,94071.15
2019-02-28T16:30:54.606Z,94070.38
2019-02-28T16:45:51.840Z,94067.00
2019-02-28T17:00:52.449Z,94070.58
2019-02-28T17:16:01.379Z,94040.72
2019-02-28T17:45:51.711Z,94027.55
2019-02-28T18:45:53.569Z,93972.87
2019-02-28T19:00:51.816Z,93978.08
2019-02-28T19:15:53.883Z,93968.61
2019-02-28T19:30:54.204Z,93963.59
2019-02-28T19:45:54.326Z,93939.73
2019-02-28T20:00:53.464Z,93945.15
2019-02-28T20:15:59.211Z,93929.48
2019-02-28T20:30:53.099Z,93920.70
2019-02-28T20:45:52.112Z,93920.92
2019-02-28T21:15:51.163Z,93938.80
2019-02-28T21:30:51.248Z,93950.92
2019-02-28T21:45:51.062Z,93989.88
2019-02-28T22:00:52.948Z,93997.81
2019-02-28T22:15:51.655Z,94005.61
2019-02-28T22:45:52.945Z,93991.23
2019-02-28T23:00:59.755Z,94007.28
2019-02-28T23:15:51.221Z,94011.81
2019-02-28T23:45:51.048Z,93965.25
